sensor_id;sensor_type;location;lat;lon;timestamp;temperature;humidity
21830;DHT22;11077;50.264;6.798;2022-11-15T00:00:16;9.90;99.90
21830;DHT22;11077;50.264;6.798;2022-11-15T00:03:01;9.90;99.90
21830;DHT22;11077;50.264;6.798;2022-11-15T00:05:49;9.90;99.90
21830;DHT22;11077;50.264;6.798;2022-11-15T00:08:35;9.90;99.90
21830;DHT22;11077;50.264;6.798;2022-11-15T00:11:21;9.90;99.90
21830;DHT22;11077;50.264;6.798;2022-11-15T00:14:07;9.90;99.90
21830;DHT22;11077;50.264;6.798;2022-11-15T00:16:53;9.90;99.90
21830;DHT22;11077;50.264;6.798;2022-11-15T00:19:38;9.90;99.90
21830;DHT22;11077;50.264;6.798;2022-11-15T00:22:31;9.90;99.90
21830;DHT22;11077;50.264;6.798;2022-11-15T00:25:17;9.80;99.90
21830;DHT22;11077;50.264;6.798;2022-11-15T00:28:03;9.90;99.90
21830;DHT22;11077;50.264;6.798;2022-11-15T00:30:49;9.90;99.90
21830;DHT22;11077;50.264;6.798;2022-11-15T00:33:34;10.00;99.90
21830;DHT22;11077;50.264;6.798;2022-11-15T00:36:20;10.00;99.90
21830;DHT22;11077;50.264;6.798;2022-11-15T00:39:07;10.00;99.90
21830;DHT22;11077;50.264;6.798;2022-11-15T00:41:53;10.00;99.90
21830;DHT22;11077;50.264;6.798;2022-11-15T00:44:39;10.00;99.90
21830;DHT22;11077;50.264;6.798;2022-11-15T00:47:25;10.00;99.90
21830;DHT22;11077;50.264;6.798;2022-11-15T00:50:11;10.10;99.90
21830;DHT22;11077;50.264;6.798;2022-11-15T00:52:57;10.10;99.90
21830;DHT22;11077;50.264;6.798;2022-11-15T00:55:45;10.10;99.90
21830;DHT22;11077;50.264;6.798;2022-11-15T00:58:31;10.10;99.90
21830;DHT22;11077;50.264;6.798;2022-11-15T01:01:17;10.10;99.90
21830;DHT22;11077;50.264;6.798;2022-11-15T01:04:03;10.10;99.90
21830;DHT22;11077;50.264;6.798;2022-11-15T01:06:49;10.10;99.90
21830;DHT22;11077;50.264;6.798;2022-11-15T01:09:34;10.10;99.90
21830;DHT22;11077;50.264;6.798;2022-11-15T01:12:21;10.10;99.90
21830;DHT22;11077;50.264;6.798;2022-11-15T01:15:08;10.10;99.90
21830;DHT22;11077;50.264;6.798;2022-11-15T01:17:54;10.10;99.90
21830;DHT22;11077;50.264;6.798;2022-11-15T01:20:40;10.10;99.90
21830;DHT22;11077;50.264;6.798;2022-11-15T01:23:26;10.10;99.90
21830;DHT22;11077;50.264;6.798;2022-11-15T01:26:14;10.10;99.90
21830;DHT22;11077;50.264;6.798;2022-11-15T01:29:02;10.10;99.90
21830;DHT22;11077;50.264;6.798;2022-11-15T01:31:48;10.10;99.90
21830;DHT22;11077;50.264;6.798;2022-11-15T01:34:34;10.10;99.90
21830;DHT22;11077;50.264;6.798;2022-11-15T01:37:20;10.10;99.90
21830;DHT22;11077;50.264;6.798;2022-11-15T01:40:06;10.10;99.90
21830;DHT22;11077;50.264;6.798;2022-11-15T01:42:52;10.10;99.90
21830;DHT22;11077;50.264;6.798;2022-11-15T01:45:39;10.10;99.90
21830;DHT22;11077;50.264;6.798;2022-11-15T01:48:29;10.10;99.90
21830;DHT22;11077;50.264;6.798;2022-11-15T01:51:18;10.10;99.90
21830;DHT22;11077;50.264;6.798;2022-11-15T01:54:09;10.10;99.90
21830;DHT22;11077;50.264;6.798;2022-11-15T01:57:01;10.10;99.90
21830;DHT22;11077;50.264;6.798;2022-11-15T01:59:47;10.10;99.90
21830;DHT22;11077;50.264;6.798;2022-11-15T02:02:36;10.10;99.90
21830;DHT22;11077;50.264;6.798;2022-11-15T02:05:23;10.10;99.90
21830;DHT22;11077;50.264;6.798;2022-11-15T02:08:10;10.10;99.90
21830;DHT22;11077;50.264;6.798;2022-11-15T02:11:06;10.10;99.90
21830;DHT22;11077;50.264;6.798;2022-11-15T02:13:53;10.10;99.90
21830;DHT22;11077;50.264;6.798;2022-11-15T02:16:48;10.00;99.90
21830;DHT22;11077;50.264;6.798;2022-11-15T02:20:02;10.00;99.90
21830;DHT22;11077;50.264;6.798;2022-11-15T02:23:06;10.00;99.90
21830;DHT22;11077;50.264;6.798;2022-11-15T02:26:06;10.00;99.90
21830;DHT22;11077;50.264;6.798;2022-11-15T02:29:01;10.00;99.90
21830;DHT22;11077;50.264;6.798;2022-11-15T02:31:53;10.00;99.90
21830;DHT22;11077;50.264;6.798;2022-11-15T02:34:48;10.00;99.90
21830;DHT22;11077;50.264;6.798;2022-11-15T02:37:42;9.90;99.90
21830;DHT22;11077;50.264;6.798;2022-11-15T02:40:34;9.90;99.90
21830;DHT22;11077;50.264;6.798;2022-11-15T02:43:26;9.90;99.90
21830;DHT22;11077;50.264;6.798;2022-11-15T02:46:35;9.90;99.90
21830;DHT22;11077;50.264;6.798;2022-11-15T02:49:43;9.90;99.90
21830;DHT22;11077;50.264;6.798;2022-11-15T02:52:30;9.90;99.90
21830;DHT22;11077;50.264;6.798;2022-11-15T02:55:27;9.90;99.90
21830;DHT22;11077;50.264;6.798;2022-11-15T02:58:37;9.90;99.90
21830;DHT22;11077;50.264;6.798;2022-11-15T03:01:36;9.90;99.90
21830;DHT22;11077;50.264;6.798;2022-11-15T03:04:30;9.80;99.90
21830;DHT22;11077;50.264;6.798;2022-11-15T03:07:25;9.90;99.90
21830;DHT22;11077;50.264;6.798;2022-11-15T03:10:18;9.80;99.90
21830;DHT22;11077;50.264;6.798;2022-11-15T03:13:13;9.90;99.90
21830;DHT22;11077;50.264;6.798;2022-11-15T03:16:04;9.90;99.90
21830;DHT22;11077;50.264;6.798;2022-11-15T03:18:55;9.90;99.90
21830;DHT22;11077;50.264;6.798;2022-11-15T03:21:41;9.90;99.90
21830;DHT22;11077;50.264;6.798;2022-11-15T03:24:31;9.90;99.90
21830;DHT22;11077;50.264;6.798;2022-11-15T03:27:21;9.90;99.90
21830;DHT22;11077;50.264;6.798;2022-11-15T03:30:09;9.90;99.90
21830;DHT22;11077;50.264;6.798;2022-11-15T03:32:57;9.90;99.90
21830;DHT22;11077;50.264;6.798;2022-11-15T03:35:44;9.90;99.90
21830;DHT22;11077;50.264;6.798;2022-11-15T03:38:32;9.90;99.90
21830;DHT22;11077;50.264;6.798;2022-11-15T03:41:24;9.90;99.90
21830;DHT22;11077;50.264;6.798;2022-11-15T03:44:17;9.90;99.90
21830;DHT22;11077;50.264;6.798;2022-11-15T03:47:08;9.90;99.90
21830;DHT22;11077;50.264;6.798;2022-11-15T03:49:58;9.90;99.90
21830;DHT22;11077;50.264;6.798;2022-11-15T03:52:46;9.80;99.90
21830;DHT22;11077;50.264;6.798;2022-11-15T03:55:32;9.80;99.90
21830;DHT22;11077;50.264;6.798;2022-11-15T03:58:20;9.80;99.90
21830;DHT22;11077;50.264;6.798;2022-11-15T04:01:06;9.70;99.90
21830;DHT22;11077;50.264;6.798;2022-11-15T04:03:52;9.70;99.90
21830;DHT22;11077;50.264;6.798;2022-11-15T04:06:38;9.70;99.90
21830;DHT22;11077;50.264;6.798;2022-11-15T04:09:24;9.70;99.90
21830;DHT22;11077;50.264;6.798;2022-11-15T04:12:09;9.70;99.90
21830;DHT22;11077;50.264;6.798;2022-11-15T04:14:57;9.60;99.90
21830;DHT22;11077;50.264;6.798;2022-11-15T04:17:54;9.60;99.90
21830;DHT22;11077;50.264;6.798;2022-11-15T04:20:40;9.60;99.90
21830;DHT22;11077;50.264;6.798;2022-11-15T04:23:43;9.60;99.90
21830;DHT22;11077;50.264;6.798;2022-11-15T04:26:46;9.50;99.90
21830;DHT22;11077;50.264;6.798;2022-11-15T04:29:32;9.50;99.90
21830;DHT22;11077;50.264;6.798;2022-11-15T04:32:22;9.50;99.90
21830;DHT22;11077;50.264;6.798;2022-11-15T04:35:08;9.50;99.90
21830;DHT22;11077;50.264;6.798;2022-11-15T04:37:55;9.50;99.90
21830;DHT22;11077;50.264;6.798;2022-11-15T04:40:41;9.50;99.90
21830;DHT22;11077;50.264;6.798;2022-11-15T04:43:27;9.50;99.90
21830;DHT22;11077;50.264;6.798;2022-11-15T04:46:13;9.50;99.90
21830;DHT22;11077;50.264;6.798;2022-11-15T04:49:00;9.50;99.90
21830;DHT22;11077;50.264;6.798;2022-11-15T04:51:46;9.50;99.90
21830;DHT22;11077;50.264;6.798;2022-11-15T04:54:32;9.50;99.90
21830;DHT22;11077;50.264;6.798;2022-11-15T04:57:18;9.50;99.90
21830;DHT22;11077;50.264;6.798;2022-11-15T05:00:06;9.40;99.90
21830;DHT22;11077;50.264;6.798;2022-11-15T05:02:52;9.40;99.90
21830;DHT22;11077;50.264;6.798;2022-11-15T05:05:57;9.40;99.90
21830;DHT22;11077;50.264;6.798;2022-11-15T05:08:43;9.40;99.90
21830;DHT22;11077;50.264;6.798;2022-11-15T05:11:29;9.40;99.90
21830;DHT22;11077;50.264;6.798;2022-11-15T05:14:15;9.40;99.90
21830;DHT22;11077;50.264;6.798;2022-11-15T05:17:01;9.30;99.90
21830;DHT22;11077;50.264;6.798;2022-11-15T05:19:47;9.40;99.90
21830;DHT22;11077;50.264;6.798;2022-11-15T05:22:34;9.30;99.90
21830;DHT22;11077;50.264;6.798;2022-11-15T05:25:19;9.30;99.90
21830;DHT22;11077;50.264;6.798;2022-11-15T05:28:05;9.20;99.90
21830;DHT22;11077;50.264;6.798;2022-11-15T05:30:50;9.20;99.90
21830;DHT22;11077;50.264;6.798;2022-11-15T05:33:37;9.20;99.90
21830;DHT22;11077;50.264;6.798;2022-11-15T05:36:28;9.20;99.90
21830;DHT22;11077;50.264;6.798;2022-11-15T05:39:16;9.20;99.90
21830;DHT22;11077;50.264;6.798;2022-11-15T05:42:06;9.20;99.90
21830;DHT22;11077;50.264;6.798;2022-11-15T05:44:53;9.20;99.90
21830;DHT22;11077;50.264;6.798;2022-11-15T05:47:40;9.20;99.90
21830;DHT22;11077;50.264;6.798;2022-11-15T05:50:26;9.20;99.90
21830;DHT22;11077;50.264;6.798;2022-11-15T05:53:14;9.20;99.90
21830;DHT22;11077;50.264;6.798;2022-11-15T05:56:03;9.20;99.90
21830;DHT22;11077;50.264;6.798;2022-11-15T05:58:51;9.20;99.90
21830;DHT22;11077;50.264;6.798;2022-11-15T06:01:38;9.20;99.90
21830;DHT22;11077;50.264;6.798;2022-11-15T06:04:24;9.20;99.90
21830;DHT22;11077;50.264;6.798;2022-11-15T06:07:10;9.10;99.90
21830;DHT22;11077;50.264;6.798;2022-11-15T06:09:56;9.10;99.90
21830;DHT22;11077;50.264;6.798;2022-11-15T06:12:43;9.10;99.90
21830;DHT22;11077;50.264;6.798;2022-11-15T06:15:28;9.10;99.90
21830;DHT22;11077;50.264;6.798;2022-11-15T06:18:14;9.10;99.90
21830;DHT22;11077;50.264;6.798;2022-11-15T06:21:00;9.00;99.90
21830;DHT22;11077;50.264;6.798;2022-11-15T06:23:46;9.00;99.90
21830;DHT22;11077;50.264;6.798;2022-11-15T06:26:31;8.90;99.90
21830;DHT22;11077;50.264;6.798;2022-11-15T06:29:20;8.90;99.90
21830;DHT22;11077;50.264;6.798;2022-11-15T06:32:08;8.80;99.90
21830;DHT22;11077;50.264;6.798;2022-11-15T06:34:54;8.80;99.90
21830;DHT22;11077;50.264;6.798;2022-11-15T06:37:40;8.80;99.90
21830;DHT22;11077;50.264;6.798;2022-11-15T06:40:26;8.70;99.90
21830;DHT22;11077;50.264;6.798;2022-11-15T06:43:12;8.70;99.90
21830;DHT22;11077;50.264;6.798;2022-11-15T06:46:00;8.60;99.90
21830;DHT22;11077;50.264;6.798;2022-11-15T06:48:46;8.60;99.90
21830;DHT22;11077;50.264;6.798;2022-11-15T06:51:32;8.70;99.90
21830;DHT22;11077;50.264;6.798;2022-11-15T06:54:18;8.70;99.90
21830;DHT22;11077;50.264;6.798;2022-11-15T06:57:05;8.70;99.90
21830;DHT22;11077;50.264;6.798;2022-11-15T06:59:51;8.60;99.90
21830;DHT22;11077;50.264;6.798;2022-11-15T07:02:38;8.70;99.90
21830;DHT22;11077;50.264;6.798;2022-11-15T07:05:24;8.70;99.90
21830;DHT22;11077;50.264;6.798;2022-11-15T07:08:10;8.60;99.90
21830;DHT22;11077;50.264;6.798;2022-11-15T07:10:58;8.60;99.90
21830;DHT22;11077;50.264;6.798;2022-11-15T07:13:45;8.50;99.90
21830;DHT22;11077;50.264;6.798;2022-11-15T07:16:31;8.50;99.90
21830;DHT22;11077;50.264;6.798;2022-11-15T07:19:18;8.50;99.90
21830;DHT22;11077;50.264;6.798;2022-11-15T07:22:04;8.50;99.90
21830;DHT22;11077;50.264;6.798;2022-11-15T07:24:50;8.50;99.90
21830;DHT22;11077;50.264;6.798;2022-11-15T07:27:37;8.60;99.90
21830;DHT22;11077;50.264;6.798;2022-11-15T07:30:22;8.60;99.90
21830;DHT22;11077;50.264;6.798;2022-11-15T07:33:08;8.60;99.90
21830;DHT22;11077;50.264;6.798;2022-11-15T07:35:58;8.60;99.90
21830;DHT22;11077;50.264;6.798;2022-11-15T07:38:45;8.60;99.90
21830;DHT22;11077;50.264;6.798;2022-11-15T07:41:31;8.60;99.90
21830;DHT22;11077;50.264;6.798;2022-11-15T07:44:17;8.60;99.90
21830;DHT22;11077;50.264;6.798;2022-11-15T07:47:02;8.60;99.90
21830;DHT22;11077;50.264;6.798;2022-11-15T07:49:48;8.60;99.90
21830;DHT22;11077;50.264;6.798;2022-11-15T07:52:37;8.60;99.90
21830;DHT22;11077;50.264;6.798;2022-11-15T07:55:22;8.60;99.90
21830;DHT22;11077;50.264;6.798;2022-11-15T07:58:10;8.60;99.90
21830;DHT22;11077;50.264;6.798;2022-11-15T08:00:56;8.60;99.90
21830;DHT22;11077;50.264;6.798;2022-11-15T08:03:42;8.50;99.90
21830;DHT22;11077;50.264;6.798;2022-11-15T08:06:27;8.50;99.90
21830;DHT22;11077;50.264;6.798;2022-11-15T08:09:14;8.50;99.90
21830;DHT22;11077;50.264;6.798;2022-11-15T08:12:00;8.40;99.90
21830;DHT22;11077;50.264;6.798;2022-11-15T08:14:46;8.40;99.90
21830;DHT22;11077;50.264;6.798;2022-11-15T08:17:32;8.30;99.90
21830;DHT22;11077;50.264;6.798;2022-11-15T08:20:18;8.40;99.90
21830;DHT22;11077;50.264;6.798;2022-11-15T08:23:05;8.40;99.90
21830;DHT22;11077;50.264;6.798;2022-11-15T08:25:58;8.30;99.90
21830;DHT22;11077;50.264;6.798;2022-11-15T08:28:43;8.40;99.90
21830;DHT22;11077;50.264;6.798;2022-11-15T08:31:29;8.50;99.90
21830;DHT22;11077;50.264;6.798;2022-11-15T08:34:15;8.50;99.90
21830;DHT22;11077;50.264;6.798;2022-11-15T08:37:00;8.50;99.90
21830;DHT22;11077;50.264;6.798;2022-11-15T08:39:47;8.60;99.90
21830;DHT22;11077;50.264;6.798;2022-11-15T08:42:34;8.60;99.90
21830;DHT22;11077;50.264;6.798;2022-11-15T08:45:20;8.60;99.90
21830;DHT22;11077;50.264;6.798;2022-11-15T08:48:05;8.60;99.90
21830;DHT22;11077;50.264;6.798;2022-11-15T08:50:53;8.70;99.90
21830;DHT22;11077;50.264;6.798;2022-11-15T08:53:39;8.70;99.90
21830;DHT22;11077;50.264;6.798;2022-11-15T08:56:25;8.80;99.90
21830;DHT22;11077;50.264;6.798;2022-11-15T08:59:12;8.80;99.90
21830;DHT22;11077;50.264;6.798;2022-11-15T09:01:58;8.80;99.90
21830;DHT22;11077;50.264;6.798;2022-11-15T09:04:44;8.80;99.90
21830;DHT22;11077;50.264;6.798;2022-11-15T09:07:30;8.70;99.90
21830;DHT22;11077;50.264;6.798;2022-11-15T09:10:16;8.80;99.90
21830;DHT22;11077;50.264;6.798;2022-11-15T09:13:02;8.80;99.90
21830;DHT22;11077;50.264;6.798;2022-11-15T09:15:49;8.80;99.90
21830;DHT22;11077;50.264;6.798;2022-11-15T09:18:35;8.80;99.90
21830;DHT22;11077;50.264;6.798;2022-11-15T09:21:21;8.80;99.90
21830;DHT22;11077;50.264;6.798;2022-11-15T09:24:07;8.80;99.90
21830;DHT22;11077;50.264;6.798;2022-11-15T09:26:53;8.80;99.90
21830;DHT22;11077;50.264;6.798;2022-11-15T09:29:38;8.90;99.90
21830;DHT22;11077;50.264;6.798;2022-11-15T09:32:28;8.90;99.90
21830;DHT22;11077;50.264;6.798;2022-11-15T09:35:14;8.90;99.90
21830;DHT22;11077;50.264;6.798;2022-11-15T09:38:00;8.90;99.90
21830;DHT22;11077;50.264;6.798;2022-11-15T09:40:50;9.00;99.90
21830;DHT22;11077;50.264;6.798;2022-11-15T09:43:44;8.90;99.90
21830;DHT22;11077;50.264;6.798;2022-11-15T09:46:38;8.90;99.90
21830;DHT22;11077;50.264;6.798;2022-11-15T09:49:42;9.00;99.90
21830;DHT22;11077;50.264;6.798;2022-11-15T09:52:23;9.20;99.90
21830;DHT22;11077;50.264;6.798;2022-11-15T09:54:52;9.20;99.90
21830;DHT22;11077;50.264;6.798;2022-11-15T09:57:24;9.20;99.90
21830;DHT22;11077;50.264;6.798;2022-11-15T10:00:01;9.20;99.90
21830;DHT22;11077;50.264;6.798;2022-11-15T10:02:50;9.20;99.90
21830;DHT22;11077;50.264;6.798;2022-11-15T10:05:24;9.30;99.90
21830;DHT22;11077;50.264;6.798;2022-11-15T10:07:59;9.30;99.90
21830;DHT22;11077;50.264;6.798;2022-11-15T10:10:32;9.40;99.90
21830;DHT22;11077;50.264;6.798;2022-11-15T10:13:03;9.40;99.90
21830;DHT22;11077;50.264;6.798;2022-11-15T10:15:31;9.40;99.90
21830;DHT22;11077;50.264;6.798;2022-11-15T10:18:16;9.40;99.90
21830;DHT22;11077;50.264;6.798;2022-11-15T10:20:50;9.40;99.90
21830;DHT22;11077;50.264;6.798;2022-11-15T10:23:19;9.50;99.90
21830;DHT22;11077;50.264;6.798;2022-11-15T10:25:48;9.50;99.90
21830;DHT22;11077;50.264;6.798;2022-11-15T10:28:22;9.60;99.90
21830;DHT22;11077;50.264;6.798;2022-11-15T10:30:52;9.60;99.90
21830;DHT22;11077;50.264;6.798;2022-11-15T10:33:32;9.60;99.90
21830;DHT22;11077;50.264;6.798;2022-11-15T10:36:19;9.60;99.90
21830;DHT22;11077;50.264;6.798;2022-11-15T10:38:57;9.70;99.90
21830;DHT22;11077;50.264;6.798;2022-11-15T10:41:41;9.70;99.90
21830;DHT22;11077;50.264;6.798;2022-11-15T10:44:22;9.70;99.90
21830;DHT22;11077;50.264;6.798;2022-11-15T10:47:06;9.70;99.90
21830;DHT22;11077;50.264;6.798;2022-11-15T10:49:34;9.70;99.90
21830;DHT22;11077;50.264;6.798;2022-11-15T10:52:13;9.80;99.90
21830;DHT22;11077;50.264;6.798;2022-11-15T10:54:44;9.80;99.90
21830;DHT22;11077;50.264;6.798;2022-11-15T10:57:15;9.80;99.90
21830;DHT22;11077;50.264;6.798;2022-11-15T10:59:47;9.90;99.90
21830;DHT22;11077;50.264;6.798;2022-11-15T11:02:32;9.90;99.90
21830;DHT22;11077;50.264;6.798;2022-11-15T11:05:02;9.90;99.90
21830;DHT22;11077;50.264;6.798;2022-11-15T11:07:33;10.00;99.90
21830;DHT22;11077;50.264;6.798;2022-11-15T11:10:05;10.00;99.90
21830;DHT22;11077;50.264;6.798;2022-11-15T11:12:34;10.00;99.90
21830;DHT22;11077;50.264;6.798;2022-11-15T11:15:10;10.10;99.90
21830;DHT22;11077;50.264;6.798;2022-11-15T11:17:51;10.00;99.90
21830;DHT22;11077;50.264;6.798;2022-11-15T11:20:26;10.00;99.90
21830;DHT22;11077;50.264;6.798;2022-11-15T11:23:16;10.00;99.90
21830;DHT22;11077;50.264;6.798;2022-11-15T11:25:51;10.00;99.90
21830;DHT22;11077;50.264;6.798;2022-11-15T11:28:29;10.10;99.90
21830;DHT22;11077;50.264;6.798;2022-11-15T11:31:09;10.10;99.90
21830;DHT22;11077;50.264;6.798;2022-11-15T11:33:47;10.10;99.90
21830;DHT22;11077;50.264;6.798;2022-11-15T11:36:23;10.10;99.90
21830;DHT22;11077;50.264;6.798;2022-11-15T11:39:00;10.10;99.90
21830;DHT22;11077;50.264;6.798;2022-11-15T11:41:44;10.20;99.90
21830;DHT22;11077;50.264;6.798;2022-11-15T11:44:28;10.20;99.90
21830;DHT22;11077;50.264;6.798;2022-11-15T11:47:00;10.30;99.90
21830;DHT22;11077;50.264;6.798;2022-11-15T11:49:33;10.30;99.90
21830;DHT22;11077;50.264;6.798;2022-11-15T11:52:05;10.30;99.90
21830;DHT22;11077;50.264;6.798;2022-11-15T11:54:46;10.30;99.90
21830;DHT22;11077;50.264;6.798;2022-11-15T11:57:22;10.40;99.90
21830;DHT22;11077;50.264;6.798;2022-11-15T12:00:04;10.40;99.90
21830;DHT22;11077;50.264;6.798;2022-11-15T12:02:40;10.50;99.90
21830;DHT22;11077;50.264;6.798;2022-11-15T12:05:13;10.50;99.90
21830;DHT22;11077;50.264;6.798;2022-11-15T12:07:42;10.50;99.90
21830;DHT22;11077;50.264;6.798;2022-11-15T12:10:21;10.50;99.90
21830;DHT22;11077;50.264;6.798;2022-11-15T12:12:55;10.60;99.90
21830;DHT22;11077;50.264;6.798;2022-11-15T12:15:26;10.60;99.90
21830;DHT22;11077;50.264;6.798;2022-11-15T12:17:55;10.70;99.90
21830;DHT22;11077;50.264;6.798;2022-11-15T12:20:24;10.70;99.90
21830;DHT22;11077;50.264;6.798;2022-11-15T12:22:55;10.70;99.90
21830;DHT22;11077;50.264;6.798;2022-11-15T12:25:30;10.70;99.90
21830;DHT22;11077;50.264;6.798;2022-11-15T12:28:03;10.70;99.90
21830;DHT22;11077;50.264;6.798;2022-11-15T12:30:44;10.70;99.90
21830;DHT22;11077;50.264;6.798;2022-11-15T12:33:32;10.70;99.90
21830;DHT22;11077;50.264;6.798;2022-11-15T12:36:03;10.80;99.90
21830;DHT22;11077;50.264;6.798;2022-11-15T12:38:53;10.80;99.90
21830;DHT22;11077;50.264;6.798;2022-11-15T12:41:23;10.80;99.90
21830;DHT22;11077;50.264;6.798;2022-11-15T12:43:51;10.90;99.90
21830;DHT22;11077;50.264;6.798;2022-11-15T12:49:44;10.90;99.90
21830;DHT22;11077;50.264;6.798;2022-11-15T12:52:11;11.00;99.90
21830;DHT22;11077;50.264;6.798;2022-11-15T12:55:02;11.10;99.90
21830;DHT22;11077;50.264;6.798;2022-11-15T12:57:39;11.20;99.90
21830;DHT22;11077;50.264;6.798;2022-11-15T13:03:22;11.30;99.90
21830;DHT22;11077;50.264;6.798;2022-11-15T13:08:48;11.30;99.90
21830;DHT22;11077;50.264;6.798;2022-11-15T13:11:42;11.30;99.90
21830;DHT22;11077;50.264;6.798;2022-11-15T13:14:43;11.20;99.90
21830;DHT22;11077;50.264;6.798;2022-11-15T13:17:27;11.30;99.90
21830;DHT22;11077;50.264;6.798;2022-11-15T13:20:23;11.30;99.90
21830;DHT22;11077;50.264;6.798;2022-11-15T13:23:01;11.30;99.90
21830;DHT22;11077;50.264;6.798;2022-11-15T13:28:42;11.20;99.90
21830;DHT22;11077;50.264;6.798;2022-11-15T13:31:29;11.30;99.90
21830;DHT22;11077;50.264;6.798;2022-11-15T13:33:59;11.30;99.90
21830;DHT22;11077;50.264;6.798;2022-11-15T13:36:29;11.30;99.90
21830;DHT22;11077;50.264;6.798;2022-11-15T13:39:00;11.40;99.90
21830;DHT22;11077;50.264;6.798;2022-11-15T13:41:30;11.40;99.90
21830;DHT22;11077;50.264;6.798;2022-11-15T13:43:59;11.40;99.90
21830;DHT22;11077;50.264;6.798;2022-11-15T13:46:29;11.50;99.90
21830;DHT22;11077;50.264;6.798;2022-11-15T13:48:58;11.40;99.90
21830;DHT22;11077;50.264;6.798;2022-11-15T13:51:33;11.40;99.90
21830;DHT22;11077;50.264;6.798;2022-11-15T13:54:07;11.40;99.90
21830;DHT22;11077;50.264;6.798;2022-11-15T13:56:36;11.30;99.90
21830;DHT22;11077;50.264;6.798;2022-11-15T13:59:10;11.30;99.90
21830;DHT22;11077;50.264;6.798;2022-11-15T14:01:41;11.30;99.90
21830;DHT22;11077;50.264;6.798;2022-11-15T14:04:13;11.30;99.90
21830;DHT22;11077;50.264;6.798;2022-11-15T14:06:45;11.30;99.90
21830;DHT22;11077;50.264;6.798;2022-11-15T14:09:30;11.30;99.90
21830;DHT22;11077;50.264;6.798;2022-11-15T14:12:00;11.30;99.90
21830;DHT22;11077;50.264;6.798;2022-11-15T14:14:29;11.30;99.90
21830;DHT22;11077;50.264;6.798;2022-11-15T14:16:59;11.30;99.90
21830;DHT22;11077;50.264;6.798;2022-11-15T14:19:38;11.30;99.90
21830;DHT22;11077;50.264;6.798;2022-11-15T14:22:11;11.20;99.90
21830;DHT22;11077;50.264;6.798;2022-11-15T14:24:40;11.30;99.90
21830;DHT22;11077;50.264;6.798;2022-11-15T14:27:22;11.20;99.90
21830;DHT22;11077;50.264;6.798;2022-11-15T14:29:50;11.20;99.90
21830;DHT22;11077;50.264;6.798;2022-11-15T14:32:20;11.10;99.90
21830;DHT22;11077;50.264;6.798;2022-11-15T14:34:48;11.10;99.90
21830;DHT22;11077;50.264;6.798;2022-11-15T14:37:22;11.10;99.90
21830;DHT22;11077;50.264;6.798;2022-11-15T14:39:50;11.10;99.90
21830;DHT22;11077;50.264;6.798;2022-11-15T14:42:18;11.10;99.90
21830;DHT22;11077;50.264;6.798;2022-11-15T14:44:45;11.00;99.90
21830;DHT22;11077;50.264;6.798;2022-11-15T14:47:13;11.00;99.90
21830;DHT22;11077;50.264;6.798;2022-11-15T14:49:42;11.00;99.90
21830;DHT22;11077;50.264;6.798;2022-11-15T14:52:24;11.00;99.90
21830;DHT22;11077;50.264;6.798;2022-11-15T14:54:51;10.90;99.90
21830;DHT22;11077;50.264;6.798;2022-11-15T14:57:19;10.90;99.90
21830;DHT22;11077;50.264;6.798;2022-11-15T14:59:46;10.90;99.90
21830;DHT22;11077;50.264;6.798;2022-11-15T15:02:17;10.90;99.90
21830;DHT22;11077;50.264;6.798;2022-11-15T15:04:46;10.90;99.90
21830;DHT22;11077;50.264;6.798;2022-11-15T15:07:14;10.90;99.90
21830;DHT22;11077;50.264;6.798;2022-11-15T15:09:41;10.80;99.90
21830;DHT22;11077;50.264;6.798;2022-11-15T15:12:16;10.80;99.90
21830;DHT22;11077;50.264;6.798;2022-11-15T15:14:44;10.80;99.90
21830;DHT22;11077;50.264;6.798;2022-11-15T15:17:12;10.80;99.90
21830;DHT22;11077;50.264;6.798;2022-11-15T15:19:39;10.80;99.90
21830;DHT22;11077;50.264;6.798;2022-11-15T15:22:11;10.80;99.90
21830;DHT22;11077;50.264;6.798;2022-11-15T15:24:40;10.80;99.90
21830;DHT22;11077;50.264;6.798;2022-11-15T15:27:08;10.70;99.90
21830;DHT22;11077;50.264;6.798;2022-11-15T15:29:36;10.70;99.90
21830;DHT22;11077;50.264;6.798;2022-11-15T15:32:03;10.70;99.90
21830;DHT22;11077;50.264;6.798;2022-11-15T15:34:31;10.70;99.90
21830;DHT22;11077;50.264;6.798;2022-11-15T15:37:22;10.70;99.90
21830;DHT22;11077;50.264;6.798;2022-11-15T15:39:50;10.70;99.90
21830;DHT22;11077;50.264;6.798;2022-11-15T15:42:20;10.80;99.90
21830;DHT22;11077;50.264;6.798;2022-11-15T15:44:49;10.70;99.90
21830;DHT22;11077;50.264;6.798;2022-11-15T15:47:18;10.80;99.90
21830;DHT22;11077;50.264;6.798;2022-11-15T15:49:46;10.70;99.90
21830;DHT22;11077;50.264;6.798;2022-11-15T15:52:15;10.80;99.90
21830;DHT22;11077;50.264;6.798;2022-11-15T15:54:42;10.70;99.90
21830;DHT22;11077;50.264;6.798;2022-11-15T15:57:12;10.80;99.90
21830;DHT22;11077;50.264;6.798;2022-11-15T15:59:40;10.80;99.90
21830;DHT22;11077;50.264;6.798;2022-11-15T16:02:09;10.80;99.90
21830;DHT22;11077;50.264;6.798;2022-11-15T16:04:37;10.70;99.90
21830;DHT22;11077;50.264;6.798;2022-11-15T16:07:04;10.70;99.90
21830;DHT22;11077;50.264;6.798;2022-11-15T16:09:32;10.60;99.90
21830;DHT22;11077;50.264;6.798;2022-11-15T16:12:17;10.60;99.90
21830;DHT22;11077;50.264;6.798;2022-11-15T16:14:44;10.60;99.90
21830;DHT22;11077;50.264;6.798;2022-11-15T16:17:15;10.60;99.90
21830;DHT22;11077;50.264;6.798;2022-11-15T16:19:44;10.60;99.90
21830;DHT22;11077;50.264;6.798;2022-11-15T16:22:11;10.60;99.90
21830;DHT22;11077;50.264;6.798;2022-11-15T16:24:39;10.60;99.90
21830;DHT22;11077;50.264;6.798;2022-11-15T16:27:12;10.60;99.90
21830;DHT22;11077;50.264;6.798;2022-11-15T16:29:40;10.50;99.90
21830;DHT22;11077;50.264;6.798;2022-11-15T16:32:07;10.60;99.90
21830;DHT22;11077;50.264;6.798;2022-11-15T16:34:34;10.60;99.90
21830;DHT22;11077;50.264;6.798;2022-11-15T16:37:02;10.60;99.90
21830;DHT22;11077;50.264;6.798;2022-11-15T16:39:29;10.50;99.90
21830;DHT22;11077;50.264;6.798;2022-11-15T16:41:58;10.50;99.90
21830;DHT22;11077;50.264;6.798;2022-11-15T16:44:25;10.50;99.90
21830;DHT22;11077;50.264;6.798;2022-11-15T16:46:53;10.50;99.90
21830;DHT22;11077;50.264;6.798;2022-11-15T16:49:20;10.50;99.90
21830;DHT22;11077;50.264;6.798;2022-11-15T16:51:48;10.50;99.90
21830;DHT22;11077;50.264;6.798;2022-11-15T16:54:16;10.50;99.90
21830;DHT22;11077;50.264;6.798;2022-11-15T16:56:44;10.50;99.90
21830;DHT22;11077;50.264;6.798;2022-11-15T16:59:15;10.50;99.90
21830;DHT22;11077;50.264;6.798;2022-11-15T17:01:43;10.50;99.90
21830;DHT22;11077;50.264;6.798;2022-11-15T17:04:17;10.50;99.90
21830;DHT22;11077;50.264;6.798;2022-11-15T17:06:46;10.50;99.90
21830;DHT22;11077;50.264;6.798;2022-11-15T17:09:14;10.50;99.90
21830;DHT22;11077;50.264;6.798;2022-11-15T17:11:42;10.50;99.90
21830;DHT22;11077;50.264;6.798;2022-11-15T17:14:12;10.40;99.90
21830;DHT22;11077;50.264;6.798;2022-11-15T17:16:40;10.40;99.90
21830;DHT22;11077;50.264;6.798;2022-11-15T17:19:12;10.40;99.90